Terminal Aerodrome Forecast
Issued by NWS

Home | Current Version | Previous Version | Text Only | Print | Product List | Glossary Off
Versions: 1 2 3 4 5 6 7 8 9 10 11 12 13 14 15 16 17 18 19 20 21 22 23 24 25 26 27 28 29 30 31 32 33 34 35 36 37 38 39 40 41 42 43 44 45

000
FTUS43 KPAH 231720
TAFOWB
TAF
KOWB 231720Z 2318/2418 32010KT P6SM VCSH SCT006 BKN011
      TEMPO 2318/2322 4SM -SHRA BKN006
     FM232200 VRB05KT P6SM SCT015 OVC100
     FM240600 02006KT 4SM BR VCSH OVC010
     FM240900 05007KT 3SM BR VCSH OVC005
     FM241500 12007KT 4SM -SHRA BR OVC004=

USA.gov is the U.S. government's official web portal to all federal, state and local government web resources and services.